createdAt,value
2023-05-09T00:04:20.362Z,6.48
2023-05-09T00:09:42.508Z,6.35
2023-05-09T00:15:04.513Z,6.34
2023-05-09T00:20:26.587Z,6.33
2023-05-09T00:25:48.554Z,6.31
2023-05-09T00:31:10.110Z,6.07
2023-05-09T00:36:32.842Z,5.88
2023-05-09T00:41:56.213Z,5.91
2023-05-09T00:47:18.332Z,6.02
2023-05-09T00:52:40.313Z,5.95
2023-05-09T00:58:03.447Z,5.94
2023-05-09T01:03:25.494Z,5.99
2023-05-09T01:09:04.452Z,5.85
2023-05-09T01:15:00.073Z,5.82
2023-05-09T01:20:31.308Z,5.87
2023-05-09T01:26:11.010Z,5.89
2023-05-09T01:31:34.873Z,5.84
2023-05-09T01:36:59.349Z,5.84
2023-05-09T01:42:21.531Z,5.91
2023-05-09T01:47:44.003Z,5.92
2023-05-09T01:53:06.719Z,5.73
2023-05-09T01:58:28.947Z,5.71
2023-05-09T02:03:52.749Z,5.77
2023-05-09T02:09:14.703Z,5.81
2023-05-09T02:14:37.812Z,5.80
2023-05-09T02:19:59.713Z,5.74
2023-05-09T02:25:21.340Z,5.43
2023-05-09T02:30:44.645Z,5.20
2023-05-09T02:36:08.640Z,5.26
2023-05-09T02:41:31.043Z,5.39
2023-05-09T02:46:52.547Z,5.38
2023-05-09T02:52:14.748Z,5.30
2023-05-09T02:57:36.917Z,5.32
2023-05-09T03:03:00.231Z,5.33
2023-05-09T03:08:22.100Z,5.37
2023-05-09T03:13:43.822Z,5.40
2023-05-09T03:19:05.833Z,5.41
2023-05-09T03:24:28.385Z,5.41
2023-05-09T03:29:50.294Z,5.34
2023-05-09T03:35:15.283Z,5.30
2023-05-09T03:40:37.920Z,5.34
2023-05-09T03:46:02.666Z,5.24
2023-05-09T03:51:24.832Z,5.11
2023-05-09T03:56:47.480Z,5.21
2023-05-09T04:02:09.123Z,5.23
2023-05-09T04:07:31.843Z,5.21
2023-05-09T04:12:53.907Z,5.29
2023-05-09T04:18:15.715Z,5.30
2023-05-09T04:23:38.918Z,5.47
2023-05-09T04:29:01.939Z,5.62
2023-05-09T04:34:23.808Z,5.73
2023-05-09T04:39:45.967Z,5.83
2023-05-09T04:45:16.662Z,6.01
2023-05-09T04:50:41.702Z,6.21
2023-05-09T04:56:03.286Z,6.40
2023-05-09T05:01:26.806Z,6.77
2023-05-09T05:06:49.765Z,7.29
2023-05-09T05:12:15.296Z,7.61
2023-05-09T05:17:37.458Z,7.82
2023-05-09T05:23:00.171Z,8.01
2023-05-09T05:28:23.630Z,8.19
2023-05-09T05:33:46.016Z,8.36
2023-05-09T05:39:08.111Z,8.50
2023-05-09T05:44:30.951Z,8.53
2023-05-09T05:49:56.125Z,8.75
2023-05-09T05:55:18.167Z,8.91
2023-05-09T06:00:40.141Z,8.98
2023-05-09T06:06:04.631Z,9.06
2023-05-09T06:11:27.800Z,9.19
2023-05-09T06:16:50.050Z,9.40
2023-05-09T06:22:12.401Z,9.40
2023-05-09T06:27:34.353Z,9.51
2023-05-09T06:32:59.107Z,9.68
2023-05-09T06:38:21.091Z,9.79
2023-05-09T06:43:43.198Z,9.92
2023-05-09T06:49:06.595Z,10.25
2023-05-09T06:54:28.659Z,10.57
2023-05-09T06:59:53.704Z,10.80
2023-05-09T07:05:20.155Z,11.03
2023-05-09T07:10:44.653Z,11.24
2023-05-09T07:16:06.680Z,11.48
2023-05-09T07:21:31.458Z,11.63
2023-05-09T07:26:53.839Z,11.86
2023-05-09T07:32:15.691Z,11.89
2023-05-09T07:37:37.429Z,11.87
2023-05-09T07:42:59.415Z,12.01
2023-05-09T07:48:21.350Z,12.07
2023-05-09T07:53:43.393Z,12.11
2023-05-09T07:59:05.404Z,12.16
2023-05-09T08:04:33.625Z,12.39
2023-05-09T08:09:55.873Z,12.60
2023-05-09T08:15:18.304Z,12.73
2023-05-09T08:20:41.048Z,12.89
2023-05-09T08:26:02.979Z,13.12
2023-05-09T08:31:24.698Z,13.24
2023-05-09T08:36:49.814Z,13.47
2023-05-09T08:42:12.740Z,13.62
2023-05-09T08:47:36.292Z,13.88
2023-05-09T08:52:58.393Z,13.99
2023-05-09T08:58:22.884Z,14.16
2023-05-09T09:03:47.844Z,14.37
2023-05-09T09:09:09.828Z,14.44
2023-05-09T09:14:32.247Z,14.63
2023-05-09T09:20:02.300Z,14.63
2023-05-09T09:25:24.431Z,14.50
2023-05-09T09:30:49.191Z,14.41
2023-05-09T09:36:11.209Z,14.44
2023-05-09T09:41:38.132Z,14.50
2023-05-09T09:47:01.183Z,14.65
2023-05-09T09:52:27.065Z,15.00
2023-05-09T09:57:49.766Z,15.26
2023-05-09T10:03:16.341Z,15.35
2023-05-09T10:08:38.334Z,15.27
2023-05-09T10:13:59.763Z,15.28
2023-05-09T10:19:22.593Z,15.35
2023-05-09T10:25:03.544Z,15.48
2023-05-09T10:30:30.227Z,15.45
2023-05-09T10:35:52.265Z,15.22
2023-05-09T10:41:15.538Z,15.14
2023-05-09T10:46:37.775Z,15.38
2023-05-09T10:51:59.574Z,15.65
2023-05-09T10:57:21.587Z,15.88
2023-05-09T11:03:06.893Z,16.10
2023-05-09T11:08:30.737Z,16.49
2023-05-09T11:13:57.381Z,16.57
2023-05-09T11:19:38.507Z,16.42
2023-05-09T11:25:06.048Z,16.71
2023-05-09T11:30:43.935Z,16.70
2023-05-09T11:36:20.212Z,16.77
2023-05-09T11:41:48.464Z,16.81
2023-05-09T11:47:10.871Z,16.89
2023-05-09T11:52:33.914Z,16.93
2023-05-09T11:57:56.350Z,16.74
2023-05-09T12:03:18.208Z,17.00
2023-05-09T12:08:40.299Z,17.37
2023-05-09T12:14:01.997Z,17.67
2023-05-09T12:19:25.456Z,17.91
2023-05-09T12:24:47.345Z,17.57
2023-05-09T12:30:11.044Z,17.28
2023-05-09T12:35:33.045Z,17.53
2023-05-09T12:41:03.881Z,17.65
2023-05-09T12:46:26.073Z,17.49
2023-05-09T12:51:51.897Z,17.30
2023-05-09T12:57:24.458Z,17.01
2023-05-09T13:02:46.593Z,16.61
2023-05-09T13:08:08.407Z,16.91
2023-05-09T13:13:30.837Z,17.45
2023-05-09T13:18:52.391Z,17.71
2023-05-09T13:24:14.000Z,17.50
2023-05-09T13:29:35.535Z,17.33
2023-05-09T13:34:57.254Z,17.41
2023-05-09T13:40:19.380Z,17.24
2023-05-09T13:45:41.211Z,17.17
2023-05-09T13:51:03.822Z,17.04
2023-05-09T13:56:26.481Z,17.12
2023-05-09T14:01:48.141Z,16.92
2023-05-09T14:07:12.755Z,16.73
2023-05-09T14:12:36.679Z,16.59
2023-05-09T14:18:00.151Z,16.78
2023-05-09T14:23:22.554Z,16.81
2023-05-09T14:28:45.084Z,16.80
2023-05-09T14:34:06.706Z,16.98
2023-05-09T14:39:29.049Z,17.06
2023-05-09T14:44:50.488Z,17.03
2023-05-09T14:50:16.055Z,17.07
2023-05-09T14:55:38.132Z,17.12
2023-05-09T15:01:00.338Z,17.21
2023-05-09T15:06:23.545Z,17.29
2023-05-09T15:11:48.732Z,17.34
2023-05-09T15:17:11.206Z,17.13
2023-05-09T15:22:34.076Z,17.15
2023-05-09T15:27:56.838Z,17.11
2023-05-09T15:33:18.872Z,17.17
2023-05-09T15:38:40.745Z,17.12
2023-05-09T15:44:05.529Z,17.04
2023-05-09T15:49:27.292Z,16.89
2023-05-09T15:54:49.289Z,16.81
2023-05-09T16:00:16.514Z,16.77
2023-05-09T16:05:41.087Z,16.62
2023-05-09T16:11:04.757Z,16.58
2023-05-09T16:16:27.096Z,16.55
2023-05-09T16:21:48.799Z,16.45
2023-05-09T16:27:10.911Z,16.26
2023-05-09T16:32:32.691Z,16.25
2023-05-09T16:37:55.954Z,16.20
2023-05-09T16:43:20.205Z,16.17
2023-05-09T16:49:43.349Z,16.12
2023-05-09T16:55:06.204Z,15.87
2023-05-09T17:00:51.938Z,15.68
2023-05-09T17:06:13.838Z,15.46
2023-05-09T17:11:35.614Z,15.31
2023-05-09T17:16:57.651Z,15.19
2023-05-09T17:22:19.734Z,15.00
2023-05-09T17:28:50.287Z,14.82
2023-05-09T17:35:51.463Z,14.63
2023-05-09T17:41:53.664Z,14.48
2023-05-09T17:47:15.389Z,14.34
2023-05-09T17:52:37.528Z,14.20
2023-05-09T17:57:59.536Z,14.06
2023-05-09T18:03:21.356Z,13.94
2023-05-09T18:08:44.718Z,13.81
2023-05-09T18:14:48.196Z,13.69
2023-05-09T18:21:02.785Z,13.55
2023-05-09T18:33:39.276Z,13.28
2023-05-09T18:39:01.867Z,13.19
2023-05-09T18:44:24.033Z,13.11
2023-05-09T18:49:48.144Z,13.02
2023-05-09T18:55:10.464Z,12.95
2023-05-09T19:00:32.650Z,12.84
2023-05-09T19:05:55.616Z,12.78
2023-05-09T19:11:17.663Z,12.70
2023-05-09T19:16:41.265Z,12.63
2023-05-09T19:27:50.736Z,12.47
2023-05-09T20:02:15.698Z,11.94
2023-05-09T20:07:37.725Z,11.86
2023-05-09T20:13:01.039Z,11.79
2023-05-09T20:18:23.082Z,11.73
2023-05-09T20:23:47.518Z,11.67
2023-05-09T20:29:13.833Z,11.62
2023-05-09T20:35:32.220Z,11.53
2023-05-09T20:41:14.191Z,11.47
2023-05-09T20:46:38.670Z,11.41
2023-05-09T20:52:00.382Z,11.34
2023-05-09T20:57:22.234Z,11.29
2023-05-09T21:02:44.187Z,11.24
2023-05-09T21:08:06.658Z,11.22
2023-05-09T21:13:28.975Z,11.22
2023-05-09T21:24:27.058Z,11.15
2023-05-09T21:29:49.864Z,11.10
2023-05-09T21:35:13.264Z,11.06
2023-05-09T21:40:35.372Z,11.03
2023-05-09T21:45:57.477Z,10.99
2023-05-09T21:51:22.262Z,10.95
2023-05-09T21:56:44.131Z,10.92
2023-05-09T22:02:06.211Z,10.89
2023-05-09T22:07:28.306Z,10.84
2023-05-09T22:12:50.681Z,10.79
2023-05-09T22:18:12.467Z,10.77
2023-05-09T22:23:36.502Z,10.69
2023-05-09T22:29:01.130Z,10.64
2023-05-09T22:34:23.010Z,10.56
2023-05-09T22:39:44.993Z,10.50
2023-05-09T22:45:09.563Z,10.43
2023-05-09T22:50:31.454Z,10.36
2023-05-09T22:55:54.832Z,10.29
2023-05-09T23:01:16.481Z,10.24
2023-05-09T23:06:38.233Z,10.18
2023-05-09T23:12:02.799Z,10.09
2023-05-09T23:17:24.549Z,9.98
2023-05-09T23:22:46.355Z,9.88
2023-05-09T23:28:08.259Z,9.80
2023-05-09T23:33:30.142Z,9.70
2023-05-09T23:38:51.569Z,9.62
2023-05-09T23:44:13.006Z,9.52
2023-05-09T23:49:34.403Z,9.41
2023-05-09T23:54:56.683Z,9.31
